sensor_id;sensor_type;location;lat;lon;timestamp;pressure;altitude;pressure_sealevel;temperature;humidity
33185;BME280;19550;42.872;25.494;2023-09-07T00:00:59;96974.03;;;15.95;100.00
33185;BME280;19550;42.872;25.494;2023-09-07T00:03:28;96971.56;;;15.94;100.00
33185;BME280;19550;42.872;25.494;2023-09-07T00:05:55;96968.44;;;15.95;100.00
33185;BME280;19550;42.872;25.494;2023-09-07T00:08:23;96966.63;;;15.90;100.00
33185;BME280;19550;42.872;25.494;2023-09-07T00:10:50;96968.00;;;15.84;100.00
33185;BME280;19550;42.872;25.494;2023-09-07T00:13:17;96972.38;;;15.94;100.00
33185;BME280;19550;42.872;25.494;2023-09-07T00:15:44;96973.00;;;16.00;100.00
33185;BME280;19550;42.872;25.494;2023-09-07T00:18:11;96974.97;;;15.99;100.00
33185;BME280;19550;42.872;25.494;2023-09-07T00:20:37;96969.78;;;15.89;100.00
33185;BME280;19550;42.872;25.494;2023-09-07T00:23:05;96965.81;;;15.90;100.00
33185;BME280;19550;42.872;25.494;2023-09-07T00:25:34;96969.88;;;15.80;100.00
33185;BME280;19550;42.872;25.494;2023-09-07T00:28:00;96960.44;;;15.85;100.00
33185;BME280;19550;42.872;25.494;2023-09-07T00:30:27;96970.31;;;15.82;100.00
33185;BME280;19550;42.872;25.494;2023-09-07T00:32:54;96958.72;;;15.72;100.00
33185;BME280;19550;42.872;25.494;2023-09-07T00:35:21;96962.75;;;15.83;100.00
33185;BME280;19550;42.872;25.494;2023-09-07T00:37:48;96965.16;;;15.72;100.00
33185;BME280;19550;42.872;25.494;2023-09-07T00:40:14;96966.31;;;15.92;100.00
33185;BME280;19550;42.872;25.494;2023-09-07T00:42:43;96965.81;;;15.90;100.00
33185;BME280;19550;42.872;25.494;2023-09-07T00:45:10;96972.31;;;15.82;100.00
33185;BME280;19550;42.872;25.494;2023-09-07T00:47:37;96974.41;;;15.85;100.00
33185;BME280;19550;42.872;25.494;2023-09-07T00:50:04;96968.34;;;15.83;100.00
33185;BME280;19550;42.872;25.494;2023-09-07T00:52:32;96970.53;;;15.77;100.00
33185;BME280;19550;42.872;25.494;2023-09-07T00:55:01;96960.88;;;15.75;100.00
33185;BME280;19550;42.872;25.494;2023-09-07T00:57:29;96964.81;;;15.74;100.00
33185;BME280;19550;42.872;25.494;2023-09-07T00:59:58;96971.41;;;15.69;100.00
33185;BME280;19550;42.872;25.494;2023-09-07T01:02:25;96972.91;;;15.67;100.00
33185;BME280;19550;42.872;25.494;2023-09-07T01:04:52;96963.38;;;15.68;100.00
33185;BME280;19550;42.872;25.494;2023-09-07T01:07:23;96959.47;;;15.60;100.00
33185;BME280;19550;42.872;25.494;2023-09-07T01:09:55;96956.81;;;15.64;100.00
33185;BME280;19550;42.872;25.494;2023-09-07T01:12:22;96953.69;;;15.65;100.00
33185;BME280;19550;42.872;25.494;2023-09-07T01:14:49;96944.97;;;15.67;100.00
33185;BME280;19550;42.872;25.494;2023-09-07T01:17:17;96957.78;;;15.68;100.00
33185;BME280;19550;42.872;25.494;2023-09-07T01:19:46;96961.25;;;15.65;100.00
33185;BME280;19550;42.872;25.494;2023-09-07T01:22:16;96960.97;;;15.58;100.00
33185;BME280;19550;42.872;25.494;2023-09-07T01:24:45;96962.75;;;15.83;100.00
33185;BME280;19550;42.872;25.494;2023-09-07T01:27:12;96962.97;;;15.78;100.00
33185;BME280;19550;42.872;25.494;2023-09-07T01:29:40;96965.56;;;15.62;100.00
33185;BME280;19550;42.872;25.494;2023-09-07T01:32:06;96967.41;;;15.49;100.00
33185;BME280;19550;42.872;25.494;2023-09-07T01:34:35;96963.31;;;15.47;100.00
33185;BME280;19550;42.872;25.494;2023-09-07T01:37:02;96955.94;;;15.42;100.00
33185;BME280;19550;42.872;25.494;2023-09-07T01:39:30;96963.69;;;15.37;100.00
33185;BME280;19550;42.872;25.494;2023-09-07T01:41:57;96961.94;;;15.32;100.00
33185;BME280;19550;42.872;25.494;2023-09-07T01:44:24;96963.03;;;15.40;100.00
33185;BME280;19550;42.872;25.494;2023-09-07T01:46:52;96961.19;;;15.44;100.00
33185;BME280;19550;42.872;25.494;2023-09-07T01:49:19;96951.81;;;15.48;100.00
33185;BME280;19550;42.872;25.494;2023-09-07T01:51:45;96963.38;;;15.38;100.00
33185;BME280;19550;42.872;25.494;2023-09-07T01:54:12;96966.19;;;15.30;100.00
33185;BME280;19550;42.872;25.494;2023-09-07T01:56:40;96968.00;;;15.34;100.00
33185;BME280;19550;42.872;25.494;2023-09-07T01:59:07;96969.00;;;15.30;100.00
33185;BME280;19550;42.872;25.494;2023-09-07T02:01:34;96968.09;;;15.17;100.00
33185;BME280;19550;42.872;25.494;2023-09-07T02:04:03;96975.34;;;15.09;100.00
33185;BME280;19550;42.872;25.494;2023-09-07T02:06:30;96970.16;;;14.99;100.00
33185;BME280;19550;42.872;25.494;2023-09-07T02:08:57;96973.25;;;14.98;100.00
33185;BME280;19550;42.872;25.494;2023-09-07T02:11:23;96973.13;;;14.94;100.00
33185;BME280;19550;42.872;25.494;2023-09-07T02:13:52;96974.78;;;14.95;100.00
33185;BME280;19550;42.872;25.494;2023-09-07T02:16:18;96968.41;;;14.86;100.00
33185;BME280;19550;42.872;25.494;2023-09-07T02:18:49;96973.13;;;14.94;100.00
33185;BME280;19550;42.872;25.494;2023-09-07T02:21:16;96977.91;;;14.94;100.00
33185;BME280;19550;42.872;25.494;2023-09-07T02:23:43;96981.31;;;14.99;100.00
33185;BME280;19550;42.872;25.494;2023-09-07T02:26:10;96978.19;;;15.01;100.00
33185;BME280;19550;42.872;25.494;2023-09-07T02:28:37;96982.03;;;14.88;100.00
33185;BME280;19550;42.872;25.494;2023-09-07T02:31:06;96979.22;;;14.88;100.00
33185;BME280;19550;42.872;25.494;2023-09-07T02:33:33;96977.91;;;14.85;100.00
33185;BME280;19550;42.872;25.494;2023-09-07T02:36:00;96976.31;;;14.76;100.00
33185;BME280;19550;42.872;25.494;2023-09-07T02:38:27;96978.63;;;14.74;100.00
33185;BME280;19550;42.872;25.494;2023-09-07T02:40:55;96973.38;;;14.72;100.00
33185;BME280;19550;42.872;25.494;2023-09-07T02:43:22;96982.06;;;14.70;100.00
33185;BME280;19550;42.872;25.494;2023-09-07T02:45:50;96975.34;;;14.71;100.00
33185;BME280;19550;42.872;25.494;2023-09-07T02:48:18;96977.63;;;14.69;100.00
33185;BME280;19550;42.872;25.494;2023-09-07T02:50:45;96976.47;;;14.70;100.00
33185;BME280;19550;42.872;25.494;2023-09-07T02:53:14;96974.19;;;14.73;100.00
33185;BME280;19550;42.872;25.494;2023-09-07T02:55:41;96980.59;;;14.73;100.00
33185;BME280;19550;42.872;25.494;2023-09-07T02:58:08;96977.50;;;14.66;100.00
33185;BME280;19550;42.872;25.494;2023-09-07T03:00:34;96975.34;;;14.71;100.00
33185;BME280;19550;42.872;25.494;2023-09-07T03:03:01;96976.59;;;14.83;100.00
33185;BME280;19550;42.872;25.494;2023-09-07T03:05:30;96963.34;;;14.80;100.00
33185;BME280;19550;42.872;25.494;2023-09-07T03:07:57;96965.50;;;14.65;100.00
33185;BME280;19550;42.872;25.494;2023-09-07T03:10:23;96973.19;;;14.77;100.00
33185;BME280;19550;42.872;25.494;2023-09-07T03:12:50;96962.84;;;14.78;100.00
33185;BME280;19550;42.872;25.494;2023-09-07T03:15:20;96973.38;;;14.72;100.00
33185;BME280;19550;42.872;25.494;2023-09-07T03:17:47;96975.03;;;14.64;100.00
33185;BME280;19550;42.872;25.494;2023-09-07T03:20:14;96977.47;;;14.75;100.00
33185;BME280;19550;42.872;25.494;2023-09-07T03:22:43;96980.09;;;14.71;100.00
33185;BME280;19550;42.872;25.494;2023-09-07T03:25:11;96978.97;;;14.63;100.00
33185;BME280;19550;42.872;25.494;2023-09-07T03:27:38;96990.63;;;14.57;100.00
33185;BME280;19550;42.872;25.494;2023-09-07T03:30:05;96999.19;;;14.52;100.00
33185;BME280;19550;42.872;25.494;2023-09-07T03:32:33;96987.84;;;14.65;100.00
33185;BME280;19550;42.872;25.494;2023-09-07T03:35:02;96971.63;;;14.50;100.00
33185;BME280;19550;42.872;25.494;2023-09-07T03:37:32;96983.91;;;14.49;100.00
33185;BME280;19550;42.872;25.494;2023-09-07T03:40:00;96975.56;;;14.49;100.00
33185;BME280;19550;42.872;25.494;2023-09-07T03:42:30;96994.44;;;14.52;100.00
33185;BME280;19550;42.872;25.494;2023-09-07T03:44:57;96994.94;;;14.46;100.00
33185;BME280;19550;42.872;25.494;2023-09-07T03:47:24;97000.66;;;14.49;100.00
33185;BME280;19550;42.872;25.494;2023-09-07T03:49:54;96998.22;;;14.39;100.00
33185;BME280;19550;42.872;25.494;2023-09-07T03:52:20;97001.50;;;14.32;100.00
33185;BME280;19550;42.872;25.494;2023-09-07T03:54:49;96991.66;;;14.44;100.00
33185;BME280;19550;42.872;25.494;2023-09-07T03:57:18;96997.09;;;14.40;100.00
33185;BME280;19550;42.872;25.494;2023-09-07T03:59:45;96996.88;;;14.37;100.00
33185;BME280;19550;42.872;25.494;2023-09-07T04:02:11;96995.41;;;14.30;100.00
33185;BME280;19550;42.872;25.494;2023-09-07T04:04:38;96998.69;;;14.24;100.00
33185;BME280;19550;42.872;25.494;2023-09-07T04:07:04;97001.34;;;14.29;100.00
33185;BME280;19550;42.872;25.494;2023-09-07T04:09:31;97000.66;;;14.32;100.00
33185;BME280;19550;42.872;25.494;2023-09-07T04:11:58;97001.50;;;14.32;100.00
33185;BME280;19550;42.872;25.494;2023-09-07T04:14:27;97004.63;;;14.40;100.00
33185;BME280;19550;42.872;25.494;2023-09-07T04:16:54;97010.00;;;14.36;100.00
33185;BME280;19550;42.872;25.494;2023-09-07T04:19:21;97010.97;;;14.66;100.00
33185;BME280;19550;42.872;25.494;2023-09-07T04:21:48;97008.84;;;14.63;100.00
33185;BME280;19550;42.872;25.494;2023-09-07T04:24:15;97002.63;;;14.57;100.00
33185;BME280;19550;42.872;25.494;2023-09-07T04:26:42;97010.34;;;14.60;100.00
33185;BME280;19550;42.872;25.494;2023-09-07T04:29:08;97007.69;;;14.64;100.00
33185;BME280;19550;42.872;25.494;2023-09-07T04:31:38;97009.16;;;14.70;100.00
33185;BME280;19550;42.872;25.494;2023-09-07T04:34:05;97016.03;;;14.81;100.00
33185;BME280;19550;42.872;25.494;2023-09-07T04:36:32;97011.06;;;14.95;100.00
33185;BME280;19550;42.872;25.494;2023-09-07T04:38:59;97012.53;;;14.93;100.00
33185;BME280;19550;42.872;25.494;2023-09-07T04:41:26;97007.75;;;15.02;100.00
33185;BME280;19550;42.872;25.494;2023-09-07T04:43:53;97019.38;;;15.04;100.00
33185;BME280;19550;42.872;25.494;2023-09-07T04:46:22;97020.84;;;15.10;100.00
33185;BME280;19550;42.872;25.494;2023-09-07T04:48:50;97023.13;;;15.17;100.00
33185;BME280;19550;42.872;25.494;2023-09-07T04:51:17;97014.41;;;15.18;100.00
33185;BME280;19550;42.872;25.494;2023-09-07T04:53:46;97016.06;;;15.19;100.00
33185;BME280;19550;42.872;25.494;2023-09-07T04:56:13;97023.09;;;15.25;100.00
33185;BME280;19550;42.872;25.494;2023-09-07T04:58:40;97022.22;;;15.33;100.00
33185;BME280;19550;42.872;25.494;2023-09-07T05:01:09;97025.91;;;15.17;100.00
33185;BME280;19550;42.872;25.494;2023-09-07T05:03:36;97028.66;;;15.25;100.00
33185;BME280;19550;42.872;25.494;2023-09-07T05:06:04;97021.44;;;15.24;100.00
33185;BME280;19550;42.872;25.494;2023-09-07T05:08:31;97026.41;;;15.19;100.00
33185;BME280;19550;42.872;25.494;2023-09-07T05:11:00;97035.19;;;15.38;100.00
33185;BME280;19550;42.872;25.494;2023-09-07T05:13:27;97027.72;;;15.50;100.00
33185;BME280;19550;42.872;25.494;2023-09-07T05:15:55;97033.31;;;15.59;100.00
33185;BME280;19550;42.872;25.494;2023-09-07T05:18:22;97039.97;;;15.75;100.00
33185;BME280;19550;42.872;25.494;2023-09-07T05:20:49;97034.63;;;15.82;100.00
33185;BME280;19550;42.872;25.494;2023-09-07T05:23:18;97034.19;;;16.01;100.00
33185;BME280;19550;42.872;25.494;2023-09-07T05:25:46;97045.78;;;16.12;100.00
33185;BME280;19550;42.872;25.494;2023-09-07T05:28:14;97047.34;;;16.21;100.00
33185;BME280;19550;42.872;25.494;2023-09-07T05:30:41;97046.31;;;16.26;100.00
33185;BME280;19550;42.872;25.494;2023-09-07T05:33:09;97048.78;;;16.27;100.00
33185;BME280;19550;42.872;25.494;2023-09-07T05:35:36;97051.84;;;16.35;100.00
33185;BME280;19550;42.872;25.494;2023-09-07T05:38:04;97046.16;;;16.43;100.00
33185;BME280;19550;42.872;25.494;2023-09-07T05:40:35;97053.56;;;16.68;100.00
33185;BME280;19550;42.872;25.494;2023-09-07T05:43:03;97048.44;;;16.83;100.00
33185;BME280;19550;42.872;25.494;2023-09-07T05:45:30;97046.94;;;16.85;100.00
33185;BME280;19550;42.872;25.494;2023-09-07T05:47:57;97053.28;;;16.94;100.00
33185;BME280;19550;42.872;25.494;2023-09-07T05:50:24;97060.56;;;17.07;100.00
33185;BME280;19550;42.872;25.494;2023-09-07T05:52:51;97063.16;;;17.25;100.00
33185;BME280;19550;42.872;25.494;2023-09-07T05:55:18;97066.69;;;17.34;100.00
33185;BME280;19550;42.872;25.494;2023-09-07T05:57:46;97057.47;;;17.45;100.00
33185;BME280;19550;42.872;25.494;2023-09-07T06:00:14;97060.19;;;17.66;100.00
33185;BME280;19550;42.872;25.494;2023-09-07T06:02:42;97054.34;;;17.71;100.00
33185;BME280;19550;42.872;25.494;2023-09-07T06:05:09;97060.06;;;17.87;100.00
33185;BME280;19550;42.872;25.494;2023-09-07T06:07:36;97056.91;;;18.01;100.00
33185;BME280;19550;42.872;25.494;2023-09-07T06:10:04;97058.75;;;18.21;100.00
33185;BME280;19550;42.872;25.494;2023-09-07T06:12:31;97061.56;;;18.49;100.00
33185;BME280;19550;42.872;25.494;2023-09-07T06:15:00;97049.63;;;18.64;100.00
33185;BME280;19550;42.872;25.494;2023-09-07T06:17:27;97050.94;;;18.82;100.00
33185;BME280;19550;42.872;25.494;2023-09-07T06:19:54;97053.09;;;19.01;100.00
33185;BME280;19550;42.872;25.494;2023-09-07T06:22:21;97051.03;;;19.14;100.00
33185;BME280;19550;42.872;25.494;2023-09-07T06:24:49;97047.13;;;19.18;100.00
33185;BME280;19550;42.872;25.494;2023-09-07T06:27:15;97059.91;;;19.31;100.00
33185;BME280;19550;42.872;25.494;2023-09-07T06:29:42;97053.31;;;19.55;100.00
33185;BME280;19550;42.872;25.494;2023-09-07T06:32:10;97055.78;;;19.72;100.00
33185;BME280;19550;42.872;25.494;2023-09-07T06:34:37;97060.41;;;19.80;100.00
33185;BME280;19550;42.872;25.494;2023-09-07T06:37:04;97063.28;;;20.00;100.00
33185;BME280;19550;42.872;25.494;2023-09-07T06:39:31;97062.00;;;20.13;100.00
33185;BME280;19550;42.872;25.494;2023-09-07T06:41:58;97062.59;;;20.22;100.00
33185;BME280;19550;42.872;25.494;2023-09-07T06:44:25;97059.31;;;20.36;100.00
33185;BME280;19550;42.872;25.494;2023-09-07T06:46:52;97059.28;;;20.51;100.00
33185;BME280;19550;42.872;25.494;2023-09-07T06:49:20;97057.66;;;20.70;100.00
33185;BME280;19550;42.872;25.494;2023-09-07T06:51:47;97061.06;;;20.98;98.77
33185;BME280;19550;42.872;25.494;2023-09-07T06:54:14;97059.75;;;21.15;98.26
33185;BME280;19550;42.872;25.494;2023-09-07T06:56:41;97063.28;;;21.27;99.50
33185;BME280;19550;42.872;25.494;2023-09-07T06:59:08;97059.41;;;21.58;96.87
33185;BME280;19550;42.872;25.494;2023-09-07T07:01:35;97053.03;;;21.88;96.50
33185;BME280;19550;42.872;25.494;2023-09-07T07:04:02;97055.47;;;22.12;94.53
33185;BME280;19550;42.872;25.494;2023-09-07T07:06:30;97059.34;;;22.27;92.46
33185;BME280;19550;42.872;25.494;2023-09-07T07:08:57;97062.34;;;22.41;90.83
33185;BME280;19550;42.872;25.494;2023-09-07T07:11:23;97060.19;;;22.31;89.81
33185;BME280;19550;42.872;25.494;2023-09-07T07:13:50;97059.53;;;22.41;89.95
33185;BME280;19550;42.872;25.494;2023-09-07T07:16:17;97055.81;;;22.63;88.05
33185;BME280;19550;42.872;25.494;2023-09-07T07:18:44;97057.38;;;22.87;88.45
33185;BME280;19550;42.872;25.494;2023-09-07T07:21:11;97062.44;;;22.74;85.37
33185;BME280;19550;42.872;25.494;2023-09-07T07:23:42;97058.31;;;22.98;86.26
33185;BME280;19550;42.872;25.494;2023-09-07T07:26:08;97050.66;;;22.98;84.74
33185;BME280;19550;42.872;25.494;2023-09-07T07:28:35;97059.38;;;23.20;86.12
33185;BME280;19550;42.872;25.494;2023-09-07T07:31:07;97063.03;;;23.57;83.40
33185;BME280;19550;42.872;25.494;2023-09-07T07:33:34;97065.16;;;23.34;83.26
33185;BME280;19550;42.872;25.494;2023-09-07T07:36:03;97063.34;;;23.49;81.79
33185;BME280;19550;42.872;25.494;2023-09-07T07:38:30;97067.91;;;23.60;82.30
33185;BME280;19550;42.872;25.494;2023-09-07T07:40:58;97065.56;;;23.69;79.45
33185;BME280;19550;42.872;25.494;2023-09-07T07:43:24;97062.44;;;23.82;82.03
33185;BME280;19550;42.872;25.494;2023-09-07T07:45:51;97055.69;;;23.97;80.54
33185;BME280;19550;42.872;25.494;2023-09-07T07:48:18;97051.78;;;24.12;79.70
33185;BME280;19550;42.872;25.494;2023-09-07T07:50:49;97059.22;;;24.31;75.83
33185;BME280;19550;42.872;25.494;2023-09-07T07:53:16;97059.75;;;24.54;74.87
33185;BME280;19550;42.872;25.494;2023-09-07T07:55:42;97057.66;;;24.37;74.52
33185;BME280;19550;42.872;25.494;2023-09-07T07:58:11;97067.50;;;24.57;73.12
33185;BME280;19550;42.872;25.494;2023-09-07T08:00:38;97069.25;;;24.79;72.05
33185;BME280;19550;42.872;25.494;2023-09-07T08:03:06;97059.97;;;24.86;71.71
33185;BME280;19550;42.872;25.494;2023-09-07T08:05:33;97060.63;;;24.62;70.46
33185;BME280;19550;42.872;25.494;2023-09-07T08:08:00;97057.47;;;24.81;71.16
33185;BME280;19550;42.872;25.494;2023-09-07T08:10:28;97060.81;;;24.90;71.40
33185;BME280;19550;42.872;25.494;2023-09-07T08:12:57;97060.03;;;24.97;69.28
33185;BME280;19550;42.872;25.494;2023-09-07T08:15:25;97061.28;;;25.10;68.88
33185;BME280;19550;42.872;25.494;2023-09-07T08:17:53;97062.56;;;25.26;69.34
33185;BME280;19550;42.872;25.494;2023-09-07T08:20:20;97067.50;;;25.44;67.60
33185;BME280;19550;42.872;25.494;2023-09-07T08:22:46;97069.53;;;25.50;66.68
33185;BME280;19550;42.872;25.494;2023-09-07T08:25:14;97064.66;;;25.54;66.84
33185;BME280;19550;42.872;25.494;2023-09-07T08:27:41;97065.06;;;25.56;66.62
33185;BME280;19550;42.872;25.494;2023-09-07T08:30:11;97061.88;;;25.68;65.34
33185;BME280;19550;42.872;25.494;2023-09-07T08:32:39;97064.34;;;25.88;64.39
33185;BME280;19550;42.872;25.494;2023-09-07T08:35:08;97067.59;;;25.90;63.70
33185;BME280;19550;42.872;25.494;2023-09-07T08:37:34;97070.84;;;26.09;64.80
33185;BME280;19550;42.872;25.494;2023-09-07T08:40:01;97072.88;;;26.13;62.76
33185;BME280;19550;42.872;25.494;2023-09-07T08:42:32;97067.19;;;26.09;62.23
33185;BME280;19550;42.872;25.494;2023-09-07T08:45:00;97068.41;;;26.15;63.44
33185;BME280;19550;42.872;25.494;2023-09-07T08:47:33;97053.78;;;26.17;62.43
33185;BME280;19550;42.872;25.494;2023-09-07T08:50:02;97057.06;;;26.26;62.84
33185;BME280;19550;42.872;25.494;2023-09-07T08:52:31;97059.84;;;26.47;62.77
33185;BME280;19550;42.872;25.494;2023-09-07T08:54:58;97053.34;;;26.57;58.82
33185;BME280;19550;42.872;25.494;2023-09-07T08:57:30;97057.00;;;26.58;57.97
33185;BME280;19550;42.872;25.494;2023-09-07T08:59:57;97055.78;;;26.59;59.03
33185;BME280;19550;42.872;25.494;2023-09-07T09:02:24;97053.31;;;26.68;57.57
33185;BME280;19550;42.872;25.494;2023-09-07T09:04:51;97055.38;;;26.64;58.32
33185;BME280;19550;42.872;25.494;2023-09-07T09:07:20;97050.06;;;26.69;58.33
33185;BME280;19550;42.872;25.494;2023-09-07T09:09:47;97046.41;;;26.72;55.98
33185;BME280;19550;42.872;25.494;2023-09-07T09:12:15;97037.84;;;26.83;57.53
33185;BME280;19550;42.872;25.494;2023-09-07T09:14:42;97044.72;;;26.96;55.19
33185;BME280;19550;42.872;25.494;2023-09-07T09:17:13;97047.50;;;27.07;54.72
33185;BME280;19550;42.872;25.494;2023-09-07T09:19:40;97036.50;;;27.16;54.98
33185;BME280;19550;42.872;25.494;2023-09-07T09:22:07;97039.22;;;27.41;55.15
33185;BME280;19550;42.872;25.494;2023-09-07T09:24:36;97046.91;;;27.51;53.18
33185;BME280;19550;42.872;25.494;2023-09-07T09:27:03;97044.13;;;27.37;51.99
33185;BME280;19550;42.872;25.494;2023-09-07T09:29:32;97043.38;;;27.22;56.45
33185;BME280;19550;42.872;25.494;2023-09-07T09:32:00;97042.94;;;27.31;55.32
33185;BME280;19550;42.872;25.494;2023-09-07T09:34:32;97038.44;;;27.33;54.55
33185;BME280;19550;42.872;25.494;2023-09-07T09:37:01;97035.91;;;27.49;52.19
33185;BME280;19550;42.872;25.494;2023-09-07T09:39:29;97032.66;;;27.51;51.95
33185;BME280;19550;42.872;25.494;2023-09-07T09:41:57;97028.72;;;27.27;54.04
33185;BME280;19550;42.872;25.494;2023-09-07T09:44:24;97033.50;;;27.44;56.42
33185;BME280;19550;42.872;25.494;2023-09-07T09:46:52;97025.75;;;27.52;51.77
33185;BME280;19550;42.872;25.494;2023-09-07T09:49:21;97035.13;;;27.52;54.87
33185;BME280;19550;42.872;25.494;2023-09-07T09:51:48;97026.13;;;27.54;53.29
33185;BME280;19550;42.872;25.494;2023-09-07T09:54:17;97018.81;;;27.53;51.15
33185;BME280;19550;42.872;25.494;2023-09-07T09:56:44;97022.06;;;27.48;51.24
33185;BME280;19550;42.872;25.494;2023-09-07T09:59:13;97022.75;;;27.73;55.20
33185;BME280;19550;42.872;25.494;2023-09-07T10:01:41;97023.03;;;27.89;55.94
33185;BME280;19550;42.872;25.494;2023-09-07T10:04:10;97022.63;;;27.87;54.54
33185;BME280;19550;42.872;25.494;2023-09-07T10:06:39;97016.00;;;28.04;55.42
33185;BME280;19550;42.872;25.494;2023-09-07T10:09:06;97022.44;;;28.12;53.65
33185;BME280;19550;42.872;25.494;2023-09-07T10:11:37;97007.97;;;27.89;55.56
33185;BME280;19550;42.872;25.494;2023-09-07T10:14:06;97006.88;;;28.24;54.08
33185;BME280;19550;42.872;25.494;2023-09-07T10:16:44;97007.91;;;28.44;54.30
33185;BME280;19550;42.872;25.494;2023-09-07T10:19:15;97008.59;;;28.11;53.49
33185;BME280;19550;42.872;25.494;2023-09-07T10:21:43;97004.53;;;28.08;58.10
33185;BME280;19550;42.872;25.494;2023-09-07T10:24:10;97004.72;;;28.35;53.53
33185;BME280;19550;42.872;25.494;2023-09-07T10:26:37;96992.81;;;28.43;53.62
33185;BME280;19550;42.872;25.494;2023-09-07T10:29:04;97000.72;;;28.66;53.15
33185;BME280;19550;42.872;25.494;2023-09-07T10:31:31;96995.53;;;28.17;52.71
33185;BME280;19550;42.872;25.494;2023-09-07T10:34:09;97001.53;;;28.29;53.33
33185;BME280;19550;42.872;25.494;2023-09-07T10:36:37;96996.09;;;28.42;55.00
33185;BME280;19550;42.872;25.494;2023-09-07T10:39:04;96997.22;;;28.52;53.08
33185;BME280;19550;42.872;25.494;2023-09-07T10:41:41;96993.44;;;28.62;53.15
33185;BME280;19550;42.872;25.494;2023-09-07T10:44:09;96999.13;;;28.62;53.54
33185;BME280;19550;42.872;25.494;2023-09-07T10:46:38;96999.75;;;28.42;52.83
33185;BME280;19550;42.872;25.494;2023-09-07T10:49:07;96983.50;;;28.73;51.89
33185;BME280;19550;42.872;25.494;2023-09-07T10:51:41;96990.75;;;28.85;52.71
33185;BME280;19550;42.872;25.494;2023-09-07T10:54:15;96997.56;;;29.25;51.39
33185;BME280;19550;42.872;25.494;2023-09-07T10:56:44;96989.63;;;29.09;51.26
33185;BME280;19550;42.872;25.494;2023-09-07T10:59:13;96986.00;;;29.32;50.77
33185;BME280;19550;42.872;25.494;2023-09-07T11:01:40;96983.84;;;29.43;49.56
33185;BME280;19550;42.872;25.494;2023-09-07T11:04:07;96983.09;;;29.39;50.47
33185;BME280;19550;42.872;25.494;2023-09-07T11:06:36;96986.88;;;29.59;50.11
33185;BME280;19550;42.872;25.494;2023-09-07T11:09:06;96977.38;;;29.66;48.82
33185;BME280;19550;42.872;25.494;2023-09-07T11:11:36;96968.69;;;29.46;47.86
33185;BME280;19550;42.872;25.494;2023-09-07T11:14:03;96968.59;;;29.53;47.69
33185;BME280;19550;42.872;25.494;2023-09-07T11:16:30;96974.41;;;29.46;48.81
33185;BME280;19550;42.872;25.494;2023-09-07T11:18:57;96968.47;;;29.60;48.36
33185;BME280;19550;42.872;25.494;2023-09-07T11:21:25;96960.88;;;29.77;45.94
33185;BME280;19550;42.872;25.494;2023-09-07T11:23:52;96969.81;;;29.79;45.97
33185;BME280;19550;42.872;25.494;2023-09-07T11:26:21;96957.66;;;29.98;46.98
33185;BME280;19550;42.872;25.494;2023-09-07T11:28:48;96953.34;;;30.33;46.61
33185;BME280;19550;42.872;25.494;2023-09-07T11:31:18;96956.97;;;30.37;45.29
33185;BME280;19550;42.872;25.494;2023-09-07T11:33:46;96946.47;;;30.31;46.24
33185;BME280;19550;42.872;25.494;2023-09-07T11:36:14;96953.56;;;29.73;46.41
33185;BME280;19550;42.872;25.494;2023-09-07T11:38:43;96939.91;;;29.60;48.43
33185;BME280;19550;42.872;25.494;2023-09-07T11:41:10;96947.25;;;29.61;48.92
33185;BME280;19550;42.872;25.494;2023-09-07T11:43:38;96946.50;;;29.81;46.55
33185;BME280;19550;42.872;25.494;2023-09-07T11:46:07;96954.06;;;29.94;45.86
33185;BME280;19550;42.872;25.494;2023-09-07T11:48:35;96951.16;;;29.98;45.97
33185;BME280;19550;42.872;25.494;2023-09-07T11:51:02;96946.59;;;29.50;45.37
33185;BME280;19550;42.872;25.494;2023-09-07T11:53:30;96951.28;;;29.07;45.52
33185;BME280;19550;42.872;25.494;2023-09-07T11:55:56;96946.81;;;28.75;47.37
33185;BME280;19550;42.872;25.494;2023-09-07T11:58:24;96956.13;;;28.79;47.89
33185;BME280;19550;42.872;25.494;2023-09-07T12:00:53;96945.88;;;29.16;45.67
33185;BME280;19550;42.872;25.494;2023-09-07T12:03:20;96946.38;;;29.65;46.34
33185;BME280;19550;42.872;25.494;2023-09-07T12:05:47;96941.69;;;29.24;44.87
33185;BME280;19550;42.872;25.494;2023-09-07T12:08:14;96950.41;;;28.83;45.89
33185;BME280;19550;42.872;25.494;2023-09-07T12:10:41;96940.69;;;28.77;47.03
33185;BME280;19550;42.872;25.494;2023-09-07T12:13:08;96934.19;;;28.76;45.62
33185;BME280;19550;42.872;25.494;2023-09-07T12:15:34;96933.41;;;29.03;46.84
33185;BME280;19550;42.872;25.494;2023-09-07T12:18:03;96932.13;;;29.07;44.66
33185;BME280;19550;42.872;25.494;2023-09-07T12:20:30;96934.88;;;29.14;44.02
33185;BME280;19550;42.872;25.494;2023-09-07T12:22:57;96933.81;;;29.05;45.79
33185;BME280;19550;42.872;25.494;2023-09-07T12:25:24;96929.03;;;28.61;45.15
33185;BME280;19550;42.872;25.494;2023-09-07T12:27:52;96924.69;;;28.12;47.17
33185;BME280;19550;42.872;25.494;2023-09-07T12:30:19;96923.41;;;27.79;51.45
33185;BME280;19550;42.872;25.494;2023-09-07T12:32:47;96913.59;;;27.32;63.15
33185;BME280;19550;42.872;25.494;2023-09-07T12:35:16;96896.31;;;26.98;62.02
33185;BME280;19550;42.872;25.494;2023-09-07T12:37:43;96915.84;;;27.58;51.19
33185;BME280;19550;42.872;25.494;2023-09-07T12:40:11;96905.56;;;28.12;55.22
33185;BME280;19550;42.872;25.494;2023-09-07T12:42:39;96899.06;;;28.79;49.13
33185;BME280;19550;42.872;25.494;2023-09-07T12:45:07;96895.03;;;29.34;44.49
33185;BME280;19550;42.872;25.494;2023-09-07T12:47:34;96898.38;;;29.52;43.00